createdAt,value
2022-10-05T00:02:48.762Z,0.63
2022-10-05T00:07:53.121Z,0.73
2022-10-05T00:12:56.633Z,0.77
2022-10-05T00:18:04.072Z,0.60
2022-10-05T00:23:15.034Z,0.50
2022-10-05T00:28:23.052Z,0.60
2022-10-05T00:33:28.710Z,0.67
2022-10-05T00:38:32.195Z,0.60
2022-10-05T00:43:49.389Z,0.70
2022-10-05T00:49:04.128Z,0.50
2022-10-05T00:54:22.754Z,0.50
2022-10-05T00:59:34.309Z,0.80
2022-10-05T01:04:50.227Z,0.90
2022-10-05T01:10:00.410Z,0.80
2022-10-05T01:15:09.928Z,0.73
2022-10-05T01:20:28.231Z,0.57
2022-10-05T01:25:40.137Z,0.63
2022-10-05T01:30:53.786Z,0.70
2022-10-05T01:36:05.182Z,0.70
2022-10-05T01:41:19.485Z,0.90
2022-10-05T01:46:33.840Z,0.70
2022-10-05T01:51:46.802Z,0.67
2022-10-05T01:56:58.105Z,0.80
2022-10-05T02:02:08.001Z,0.70
2022-10-05T02:07:15.700Z,0.90
2022-10-05T02:12:23.531Z,0.87
2022-10-05T02:17:36.296Z,0.80
2022-10-05T02:22:44.754Z,0.63
2022-10-05T02:27:54.644Z,0.73
2022-10-05T02:33:03.693Z,0.70
2022-10-05T02:38:15.829Z,0.80
2022-10-05T02:43:30.410Z,0.70
2022-10-05T02:48:43.520Z,0.80
2022-10-05T02:53:59.714Z,0.70
2022-10-05T02:59:09.650Z,0.80
2022-10-05T03:04:26.995Z,0.70
2022-10-05T03:09:37.651Z,0.80
2022-10-05T03:14:50.295Z,0.80
2022-10-05T03:20:19.946Z,0.70
2022-10-05T03:25:53.535Z,1.20
2022-10-05T03:31:03.921Z,0.97
2022-10-05T03:36:19.318Z,1.27
2022-10-05T03:41:30.197Z,0.93
2022-10-05T03:46:45.162Z,0.90
2022-10-05T03:51:56.786Z,1.37
2022-10-05T03:57:07.724Z,1.20
2022-10-05T04:02:21.954Z,1.30
2022-10-05T04:07:34.963Z,1.40
2022-10-05T04:12:43.542Z,1.27
2022-10-05T04:17:52.517Z,1.40
2022-10-05T04:23:03.646Z,1.40
2022-10-05T04:28:12.988Z,1.43
2022-10-05T04:33:16.995Z,1.60
2022-10-05T04:38:44.579Z,1.53
2022-10-05T04:44:01.959Z,1.50
2022-10-05T04:49:25.662Z,1.63
2022-10-05T04:54:45.340Z,1.50
2022-10-05T05:00:09.881Z,1.67
2022-10-05T05:05:26.553Z,1.50
2022-10-05T05:11:11.348Z,1.43
2022-10-05T05:16:31.257Z,1.40
2022-10-05T05:21:43.442Z,1.60
2022-10-05T05:27:11.527Z,1.70
2022-10-05T05:32:32.000Z,1.80
2022-10-05T05:37:43.240Z,1.33
2022-10-05T05:42:57.154Z,1.30
2022-10-05T05:48:10.020Z,1.40
2022-10-05T05:53:18.922Z,1.70
2022-10-05T05:58:28.439Z,1.60
2022-10-05T06:03:38.599Z,1.00
2022-10-05T06:08:47.510Z,1.10
2022-10-05T06:14:27.578Z,1.07
2022-10-05T06:19:35.325Z,1.30
2022-10-05T06:24:46.392Z,1.13
2022-10-05T06:30:04.484Z,1.60
2022-10-05T06:35:20.756Z,1.37
2022-10-05T06:40:39.087Z,1.60
2022-10-05T06:45:55.447Z,1.20
2022-10-05T06:51:38.724Z,1.50
2022-10-05T06:56:57.390Z,1.53
2022-10-05T07:02:07.921Z,1.73
2022-10-05T07:07:22.042Z,1.93
2022-10-05T07:12:46.025Z,1.57
2022-10-05T07:18:04.954Z,1.40
2022-10-05T07:23:29.068Z,1.70
2022-10-05T07:28:41.006Z,1.13
2022-10-05T07:33:52.693Z,1.50
2022-10-05T07:39:03.655Z,1.50
2022-10-05T07:44:14.881Z,1.40
2022-10-05T07:49:29.148Z,1.60
2022-10-05T07:54:41.977Z,1.53
2022-10-05T07:59:53.727Z,1.27
2022-10-05T08:05:04.444Z,1.80
2022-10-05T08:10:29.766Z,1.33
2022-10-05T08:15:38.572Z,1.53
2022-10-05T08:20:47.531Z,1.30
2022-10-05T08:26:07.919Z,1.20
2022-10-05T08:31:23.743Z,1.30
2022-10-05T08:36:37.842Z,1.40
2022-10-05T08:42:01.689Z,1.40
2022-10-05T08:47:22.549Z,1.27
2022-10-05T08:52:29.065Z,1.17
2022-10-05T08:58:12.409Z,1.00
2022-10-05T09:03:46.940Z,1.03
2022-10-05T09:09:22.916Z,1.07
2022-10-05T09:14:40.136Z,1.10
2022-10-05T09:20:11.027Z,0.80
2022-10-05T09:25:22.509Z,1.03
2022-10-05T09:30:41.203Z,1.10
2022-10-05T09:36:17.974Z,0.93
2022-10-05T09:42:01.685Z,0.90
2022-10-05T09:47:41.407Z,1.13
2022-10-05T09:53:10.874Z,0.97
2022-10-05T09:58:48.520Z,1.03
2022-10-05T10:04:16.074Z,1.00
2022-10-05T10:09:29.141Z,1.03
2022-10-05T10:15:15.168Z,1.00
2022-10-05T10:20:39.645Z,1.20
2022-10-05T10:26:01.687Z,1.10
2022-10-05T10:31:19.452Z,1.00
2022-10-05T10:36:38.533Z,1.00
2022-10-05T10:42:26.290Z,0.90
2022-10-05T10:47:41.243Z,0.70
2022-10-05T10:52:57.996Z,0.90
2022-10-05T10:58:50.805Z,1.17
2022-10-05T11:04:27.451Z,1.13
2022-10-05T11:10:13.099Z,1.00
2022-10-05T11:15:51.916Z,0.90
2022-10-05T11:21:30.373Z,1.27
2022-10-05T11:27:03.946Z,0.90
2022-10-05T11:32:35.351Z,0.97
2022-10-05T11:37:59.322Z,0.90
2022-10-05T11:43:17.646Z,0.90
2022-10-05T11:48:49.322Z,0.90
2022-10-05T11:54:04.984Z,0.70
2022-10-05T11:59:16.531Z,0.80
2022-10-05T12:04:30.777Z,0.73
2022-10-05T12:10:12.201Z,0.80
2022-10-05T12:15:24.267Z,0.90
2022-10-05T12:20:34.501Z,0.80
2022-10-05T12:25:42.088Z,1.00
2022-10-05T12:31:08.779Z,0.83
2022-10-05T12:36:18.873Z,1.00
2022-10-05T12:41:29.215Z,1.23
2022-10-05T12:46:42.205Z,0.80
2022-10-05T12:51:55.229Z,1.00
2022-10-05T12:57:03.532Z,0.70
2022-10-05T13:02:17.894Z,0.60
2022-10-05T13:07:45.073Z,1.07
2022-10-05T13:12:56.423Z,0.87
2022-10-05T13:18:12.038Z,0.80
2022-10-05T13:23:25.610Z,0.80
2022-10-05T13:28:35.988Z,1.10
2022-10-05T13:34:02.293Z,1.00
2022-10-05T13:39:21.881Z,0.83
2022-10-05T13:44:35.013Z,0.90
2022-10-05T13:49:44.441Z,0.87
2022-10-05T13:54:58.045Z,0.90
2022-10-05T14:00:06.932Z,0.90
2022-10-05T14:05:21.468Z,1.00
2022-10-05T14:10:36.541Z,1.00
2022-10-05T14:15:42.416Z,0.97
2022-10-05T14:21:00.527Z,0.80
2022-10-05T14:26:19.440Z,1.00
2022-10-05T14:31:31.422Z,1.10
2022-10-05T14:36:40.092Z,0.70
2022-10-05T14:41:49.811Z,0.90
2022-10-05T14:46:55.972Z,1.00
2022-10-05T14:51:59.608Z,0.97
2022-10-05T14:57:17.270Z,1.00
2022-10-05T15:03:03.348Z,0.90
2022-10-05T15:08:20.997Z,0.60
2022-10-05T15:13:30.707Z,0.80
2022-10-05T15:18:41.866Z,0.87
2022-10-05T15:23:52.805Z,1.03
2022-10-05T15:29:08.269Z,1.07
2022-10-05T15:34:17.489Z,1.17
2022-10-05T15:39:29.555Z,0.97
2022-10-05T15:44:47.502Z,0.87
2022-10-05T15:50:00.588Z,1.20
2022-10-05T15:55:20.949Z,1.20
2022-10-05T16:00:27.865Z,1.07
2022-10-05T16:05:58.968Z,0.80
2022-10-05T16:11:04.024Z,1.60
2022-10-05T16:16:22.486Z,1.43
2022-10-05T16:21:32.791Z,1.07
2022-10-05T16:26:51.389Z,0.80
2022-10-05T16:32:01.423Z,1.03
2022-10-05T16:37:14.840Z,0.70
2022-10-05T16:42:34.807Z,0.60
2022-10-05T16:47:47.894Z,0.80
2022-10-05T16:52:58.735Z,0.80
2022-10-05T16:58:07.045Z,0.60
2022-10-05T17:03:22.889Z,0.70
2022-10-05T17:08:45.476Z,0.70
2022-10-05T17:14:07.526Z,1.10
2022-10-05T17:19:41.357Z,1.00
2022-10-05T17:24:59.220Z,0.80
2022-10-05T17:30:46.528Z,0.70
2022-10-05T17:36:16.881Z,1.43
2022-10-05T17:41:25.914Z,1.43
2022-10-05T17:46:39.384Z,0.93
2022-10-05T17:52:23.559Z,0.70
2022-10-05T17:57:28.065Z,0.67
2022-10-05T18:02:43.856Z,0.60
2022-10-05T18:08:09.429Z,0.30
2022-10-05T18:13:34.644Z,0.30
2022-10-05T18:18:58.075Z,0.70
2022-10-05T18:24:25.382Z,0.63
2022-10-05T18:30:06.275Z,0.43
2022-10-05T18:35:15.851Z,0.53
2022-10-05T18:40:34.297Z,0.63
2022-10-05T18:45:50.051Z,0.40
2022-10-05T18:51:01.805Z,0.50
2022-10-05T18:56:19.138Z,0.50
2022-10-05T19:01:50.889Z,0.60
2022-10-05T19:07:08.565Z,0.60
2022-10-05T19:12:22.692Z,0.60
2022-10-05T19:17:32.036Z,0.80
2022-10-05T19:22:49.533Z,0.80
2022-10-05T19:28:04.513Z,0.60
2022-10-05T19:33:27.649Z,0.57
2022-10-05T19:38:42.545Z,0.60
2022-10-05T19:44:07.857Z,0.40
2022-10-05T19:49:11.972Z,0.80
2022-10-05T19:54:25.779Z,0.70
2022-10-05T19:59:31.766Z,0.50
2022-10-05T20:04:38.063Z,0.70
2022-10-05T20:09:53.599Z,0.63
2022-10-05T20:15:36.918Z,0.50
2022-10-05T20:20:45.776Z,0.50
2022-10-05T20:26:10.187Z,0.80
2022-10-05T20:31:16.183Z,0.60
2022-10-05T20:36:19.839Z,0.50
2022-10-05T20:41:23.480Z,0.70
2022-10-05T20:46:30.807Z,0.70
2022-10-05T20:51:34.666Z,0.43
2022-10-05T20:56:38.231Z,0.60
2022-10-05T21:01:47.894Z,0.60
2022-10-05T21:06:52.857Z,0.47
2022-10-05T21:11:58.392Z,0.33
2022-10-05T21:17:07.244Z,0.60
2022-10-05T21:22:11.647Z,0.80
2022-10-05T21:27:16.373Z,0.70
2022-10-05T21:32:21.249Z,0.60
2022-10-05T21:37:25.237Z,0.60
2022-10-05T21:42:28.859Z,0.70
2022-10-05T21:47:33.779Z,0.67
2022-10-05T21:52:37.386Z,1.00
2022-10-05T21:57:41.220Z,1.10
2022-10-05T22:02:46.075Z,0.90
2022-10-05T22:07:49.730Z,0.83
2022-10-05T22:12:53.343Z,1.00
2022-10-05T22:17:59.873Z,1.10
2022-10-05T22:23:04.872Z,1.20
2022-10-05T22:28:12.009Z,0.90
2022-10-05T22:33:16.901Z,0.83
2022-10-05T22:38:20.464Z,0.80
2022-10-05T22:43:24.233Z,0.70
2022-10-05T22:48:29.582Z,0.50
2022-10-05T22:53:33.566Z,0.43
2022-10-05T22:58:37.588Z,0.40
2022-10-05T23:03:43.081Z,0.27
2022-10-05T23:08:46.957Z,0.30
2022-10-05T23:13:52.159Z,0.30
2022-10-05T23:18:57.564Z,0.37
2022-10-05T23:24:01.128Z,0.20
2022-10-05T23:29:04.648Z,0.30
2022-10-05T23:34:09.484Z,0.20
2022-10-05T23:39:13.686Z,0.40
2022-10-05T23:44:17.244Z,0.17
2022-10-05T23:49:22.106Z,0.37
2022-10-05T23:54:25.665Z,0.20
2022-10-05T23:59:29.212Z,0.50
